KLWV

Lawrenceville-Vincennes International Airport

Lawrenceville, Illinois, USA
METAR KLWV 151253Z AUTO 28008KT 10SM OVC030 M02/M07 A3010 RMK AO2 SLP196 T10171072
Observed Flight Rules
Dec-15 @ 12:53 UTC (an hour ago) Marginal Visual Flight Rules
Wind Visibility Clouds
280° at 8 knots 10 miles
  • Overcast at 3,000' AGL
Temperatures Readings
Current -2°C / 28°F
Dewpoint -7°C / 19°F
Humidity 69%
Altimeter 30.1" Hg
Pressure 1019.6 hPa
Elevation 131
METAR KLWV 151253Z AUTO 28008KT 10SM OVC030 M02/M07 A3010 RMK AO2 SLP196 T10171072
Observed Flight Rules
Dec-15 @ 12:53 UTC
(an hour ago)
MVFR
Wind Visibility
280° at 8 knots 10 miles
Clouds
  • Overcast at 3,000' AGL
Temperature Dewpoint
-2°C / 28°F -7°C / 19°F
Humidity Altimeter Pressure
69% 30.1" Hg 1019.6 hPa